sensor_id;sensor_type;location;lat;lon;timestamp;P1;durP1;ratioP1;P2;durP2;ratioP2
52033;SDS011;38045;52.988;6.536;2023-01-10T00:02:07;16.02;;;3.75;;
52033;SDS011;38045;52.988;6.536;2023-01-10T00:04:32;21.02;;;4.68;;
52033;SDS011;38045;52.988;6.536;2023-01-10T00:06:58;17.02;;;3.78;;
52033;SDS011;38045;52.988;6.536;2023-01-10T00:09:23;8.38;;;3.00;;
52033;SDS011;38045;52.988;6.536;2023-01-10T00:11:49;12.27;;;3.53;;
52033;SDS011;38045;52.988;6.536;2023-01-10T00:14:33;22.10;;;7.40;;
52033;SDS011;38045;52.988;6.536;2023-01-10T00:17:02;12.15;;;3.83;;
52033;SDS011;38045;52.988;6.536;2023-01-10T00:19:28;9.98;;;2.97;;
52033;SDS011;38045;52.988;6.536;2023-01-10T00:21:55;11.77;;;3.88;;
52033;SDS011;38045;52.988;6.536;2023-01-10T00:24:30;11.10;;;3.70;;
52033;SDS011;38045;52.988;6.536;2023-01-10T00:26:55;12.15;;;2.08;;
52033;SDS011;38045;52.988;6.536;2023-01-10T00:29:25;20.65;;;3.65;;
52033;SDS011;38045;52.988;6.536;2023-01-10T00:31:52;18.42;;;2.72;;
52033;SDS011;38045;52.988;6.536;2023-01-10T00:34:18;10.02;;;4.32;;
52033;SDS011;38045;52.988;6.536;2023-01-10T00:36:44;4.70;;;2.75;;
52033;SDS011;38045;52.988;6.536;2023-01-10T00:39:11;16.08;;;3.65;;
52033;SDS011;38045;52.988;6.536;2023-01-10T00:41:38;16.67;;;4.90;;
52033;SDS011;38045;52.988;6.536;2023-01-10T00:44:23;22.80;;;5.75;;
52033;SDS011;38045;52.988;6.536;2023-01-10T00:46:48;6.00;;;2.65;;
52033;SDS011;38045;52.988;6.536;2023-01-10T00:49:14;15.32;;;3.22;;
52033;SDS011;38045;52.988;6.536;2023-01-10T00:51:40;14.13;;;2.72;;
52033;SDS011;38045;52.988;6.536;2023-01-10T00:54:10;5.00;;;1.83;;
52033;SDS011;38045;52.988;6.536;2023-01-10T00:56:37;14.35;;;4.47;;
52033;SDS011;38045;52.988;6.536;2023-01-10T00:59:03;14.50;;;4.35;;
52033;SDS011;38045;52.988;6.536;2023-01-10T01:01:29;10.02;;;2.72;;
52033;SDS011;38045;52.988;6.536;2023-01-10T01:03:55;23.13;;;5.30;;
52033;SDS011;38045;52.988;6.536;2023-01-10T01:06:20;11.43;;;4.95;;
52033;SDS011;38045;52.988;6.536;2023-01-10T01:08:46;9.52;;;2.25;;
52033;SDS011;38045;52.988;6.536;2023-01-10T01:11:12;20.45;;;4.15;;
52033;SDS011;38045;52.988;6.536;2023-01-10T01:13:37;16.23;;;4.05;;
52033;SDS011;38045;52.988;6.536;2023-01-10T01:16:03;7.93;;;2.42;;
52033;SDS011;38045;52.988;6.536;2023-01-10T01:18:28;13.60;;;4.35;;
52033;SDS011;38045;52.988;6.536;2023-01-10T01:20:55;14.05;;;3.15;;
52033;SDS011;38045;52.988;6.536;2023-01-10T01:23:22;17.92;;;4.00;;
52033;SDS011;38045;52.988;6.536;2023-01-10T01:25:49;11.90;;;3.70;;
52033;SDS011;38045;52.988;6.536;2023-01-10T01:28:15;20.13;;;3.17;;
52033;SDS011;38045;52.988;6.536;2023-01-10T01:30:41;7.32;;;3.25;;
52033;SDS011;38045;52.988;6.536;2023-01-10T01:33:07;10.50;;;3.15;;
52033;SDS011;38045;52.988;6.536;2023-01-10T01:35:32;13.77;;;2.25;;
52033;SDS011;38045;52.988;6.536;2023-01-10T01:37:58;15.55;;;4.28;;
52033;SDS011;38045;52.988;6.536;2023-01-10T01:40:24;12.05;;;4.63;;
52033;SDS011;38045;52.988;6.536;2023-01-10T01:42:49;20.30;;;5.65;;
52033;SDS011;38045;52.988;6.536;2023-01-10T01:47:49;13.77;;;3.43;;
52033;SDS011;38045;52.988;6.536;2023-01-10T01:50:27;8.93;;;2.67;;
52033;SDS011;38045;52.988;6.536;2023-01-10T01:53:10;9.15;;;3.75;;
52033;SDS011;38045;52.988;6.536;2023-01-10T01:55:44;16.58;;;3.92;;
52033;SDS011;38045;52.988;6.536;2023-01-10T01:58:12;16.05;;;3.75;;
52033;SDS011;38045;52.988;6.536;2023-01-10T02:00:45;6.93;;;2.00;;
52033;SDS011;38045;52.988;6.536;2023-01-10T02:03:11;15.77;;;4.07;;
52033;SDS011;38045;52.988;6.536;2023-01-10T02:05:38;9.65;;;2.78;;
52033;SDS011;38045;52.988;6.536;2023-01-10T02:08:05;9.93;;;2.28;;
52033;SDS011;38045;52.988;6.536;2023-01-10T02:10:34;7.57;;;1.55;;
52033;SDS011;38045;52.988;6.536;2023-01-10T02:13:17;8.55;;;2.67;;
52033;SDS011;38045;52.988;6.536;2023-01-10T02:15:44;20.85;;;4.13;;
52033;SDS011;38045;52.988;6.536;2023-01-10T02:18:10;9.63;;;3.40;;
52033;SDS011;38045;52.988;6.536;2023-01-10T02:20:49;14.50;;;2.42;;
52033;SDS011;38045;52.988;6.536;2023-01-10T02:26:44;14.48;;;3.75;;
52033;SDS011;38045;52.988;6.536;2023-01-10T02:40:45;10.90;;;3.40;;
52033;SDS011;38045;52.988;6.536;2023-01-10T02:43:42;19.80;;;3.38;;
52033;SDS011;38045;52.988;6.536;2023-01-10T02:46:16;7.43;;;2.88;;
52033;SDS011;38045;52.988;6.536;2023-01-10T02:48:49;11.55;;;3.20;;
52033;SDS011;38045;52.988;6.536;2023-01-10T02:51:23;8.50;;;2.63;;
52033;SDS011;38045;52.988;6.536;2023-01-10T02:53:59;16.27;;;4.38;;
52033;SDS011;38045;52.988;6.536;2023-01-10T02:56:47;6.10;;;1.77;;
52033;SDS011;38045;52.988;6.536;2023-01-10T03:05:09;5.85;;;2.47;;
52033;SDS011;38045;52.988;6.536;2023-01-10T03:07:53;13.10;;;3.05;;
52033;SDS011;38045;52.988;6.536;2023-01-10T03:10:28;16.15;;;3.05;;
52033;SDS011;38045;52.988;6.536;2023-01-10T03:15:34;10.67;;;2.40;;
52033;SDS011;38045;52.988;6.536;2023-01-10T03:18:03;13.63;;;2.67;;
52033;SDS011;38045;52.988;6.536;2023-01-10T03:20:43;14.98;;;4.55;;
52033;SDS011;38045;52.988;6.536;2023-01-10T03:23:11;7.65;;;2.67;;
52033;SDS011;38045;52.988;6.536;2023-01-10T03:25:40;7.37;;;2.73;;
52033;SDS011;38045;52.988;6.536;2023-01-10T03:30:51;17.55;;;3.67;;
52033;SDS011;38045;52.988;6.536;2023-01-10T03:33:24;13.02;;;4.43;;
52033;SDS011;38045;52.988;6.536;2023-01-10T03:36:02;4.68;;;2.03;;
52033;SDS011;38045;52.988;6.536;2023-01-10T03:38:42;7.38;;;3.15;;
52033;SDS011;38045;52.988;6.536;2023-01-10T03:43:50;11.02;;;2.78;;
52033;SDS011;38045;52.988;6.536;2023-01-10T03:46:42;11.98;;;5.22;;
52033;SDS011;38045;52.988;6.536;2023-01-10T03:49:17;6.90;;;2.28;;
52033;SDS011;38045;52.988;6.536;2023-01-10T03:51:44;12.75;;;2.28;;
52033;SDS011;38045;52.988;6.536;2023-01-10T03:54:11;18.88;;;2.53;;
52033;SDS011;38045;52.988;6.536;2023-01-10T03:59:20;11.43;;;2.47;;
52033;SDS011;38045;52.988;6.536;2023-01-10T04:01:53;12.77;;;2.78;;
52033;SDS011;38045;52.988;6.536;2023-01-10T04:04:19;11.88;;;3.72;;
52033;SDS011;38045;52.988;6.536;2023-01-10T04:06:45;8.23;;;1.48;;
52033;SDS011;38045;52.988;6.536;2023-01-10T04:09:11;21.20;;;5.05;;
52033;SDS011;38045;52.988;6.536;2023-01-10T04:11:37;19.10;;;4.65;;
52033;SDS011;38045;52.988;6.536;2023-01-10T04:14:03;10.00;;;4.72;;
52033;SDS011;38045;52.988;6.536;2023-01-10T04:16:28;5.47;;;2.83;;
52033;SDS011;38045;52.988;6.536;2023-01-10T04:18:54;19.98;;;3.55;;
52033;SDS011;38045;52.988;6.536;2023-01-10T04:21:20;11.48;;;2.03;;
52033;SDS011;38045;52.988;6.536;2023-01-10T04:23:46;10.50;;;4.60;;
52033;SDS011;38045;52.988;6.536;2023-01-10T04:26:11;5.30;;;3.20;;
52033;SDS011;38045;52.988;6.536;2023-01-10T04:28:37;9.93;;;3.28;;
52033;SDS011;38045;52.988;6.536;2023-01-10T04:31:03;18.20;;;4.78;;
52033;SDS011;38045;52.988;6.536;2023-01-10T04:33:28;3.33;;;1.75;;
52033;SDS011;38045;52.988;6.536;2023-01-10T04:35:54;6.85;;;4.05;;
52033;SDS011;38045;52.988;6.536;2023-01-10T04:38:20;13.30;;;2.40;;
52033;SDS011;38045;52.988;6.536;2023-01-10T04:40:52;17.73;;;3.53;;
52033;SDS011;38045;52.988;6.536;2023-01-10T04:43:19;10.48;;;3.33;;
52033;SDS011;38045;52.988;6.536;2023-01-10T04:45:45;15.05;;;4.63;;
52033;SDS011;38045;52.988;6.536;2023-01-10T04:48:10;3.20;;;2.28;;
52033;SDS011;38045;52.988;6.536;2023-01-10T04:50:36;6.32;;;2.38;;
52033;SDS011;38045;52.988;6.536;2023-01-10T04:53:01;6.80;;;1.67;;
52033;SDS011;38045;52.988;6.536;2023-01-10T04:55:27;16.52;;;3.60;;
52033;SDS011;38045;52.988;6.536;2023-01-10T04:57:52;6.65;;;2.28;;
52033;SDS011;38045;52.988;6.536;2023-01-10T05:00:18;15.38;;;3.40;;
52033;SDS011;38045;52.988;6.536;2023-01-10T05:02:44;5.07;;;2.38;;
52033;SDS011;38045;52.988;6.536;2023-01-10T05:05:10;9.27;;;3.80;;
52033;SDS011;38045;52.988;6.536;2023-01-10T05:07:36;12.85;;;4.03;;
52033;SDS011;38045;52.988;6.536;2023-01-10T05:10:03;10.15;;;5.30;;
52033;SDS011;38045;52.988;6.536;2023-01-10T05:12:29;16.33;;;5.18;;
52033;SDS011;38045;52.988;6.536;2023-01-10T05:14:55;25.58;;;5.63;;
52033;SDS011;38045;52.988;6.536;2023-01-10T05:17:21;21.55;;;6.97;;
52033;SDS011;38045;52.988;6.536;2023-01-10T05:19:47;10.50;;;3.00;;
52033;SDS011;38045;52.988;6.536;2023-01-10T05:22:12;20.15;;;5.13;;
52033;SDS011;38045;52.988;6.536;2023-01-10T05:24:38;15.68;;;4.05;;
52033;SDS011;38045;52.988;6.536;2023-01-10T05:27:03;16.50;;;5.55;;
52033;SDS011;38045;52.988;6.536;2023-01-10T05:29:29;11.80;;;2.63;;
52033;SDS011;38045;52.988;6.536;2023-01-10T05:31:55;12.55;;;3.78;;
52033;SDS011;38045;52.988;6.536;2023-01-10T05:34:20;7.57;;;2.90;;
52033;SDS011;38045;52.988;6.536;2023-01-10T05:36:46;6.60;;;2.92;;
52033;SDS011;38045;52.988;6.536;2023-01-10T05:39:11;11.85;;;2.38;;
52033;SDS011;38045;52.988;6.536;2023-01-10T05:41:38;14.85;;;3.22;;
52033;SDS011;38045;52.988;6.536;2023-01-10T05:44:04;18.50;;;3.80;;
52033;SDS011;38045;52.988;6.536;2023-01-10T05:46:31;7.28;;;1.77;;
52033;SDS011;38045;52.988;6.536;2023-01-10T05:48:56;12.02;;;3.97;;
52033;SDS011;38045;52.988;6.536;2023-01-10T05:51:22;6.68;;;2.40;;
52033;SDS011;38045;52.988;6.536;2023-01-10T05:53:47;12.23;;;3.35;;
52033;SDS011;38045;52.988;6.536;2023-01-10T05:56:13;3.50;;;1.83;;
52033;SDS011;38045;52.988;6.536;2023-01-10T05:58:39;17.17;;;3.40;;
52033;SDS011;38045;52.988;6.536;2023-01-10T06:01:04;9.40;;;3.42;;
52033;SDS011;38045;52.988;6.536;2023-01-10T06:03:30;7.60;;;1.92;;
52033;SDS011;38045;52.988;6.536;2023-01-10T06:05:56;11.93;;;4.40;;
52033;SDS011;38045;52.988;6.536;2023-01-10T06:08:21;10.95;;;3.58;;
52033;SDS011;38045;52.988;6.536;2023-01-10T06:10:48;6.95;;;2.80;;
52033;SDS011;38045;52.988;6.536;2023-01-10T06:13:13;9.70;;;3.72;;
52033;SDS011;38045;52.988;6.536;2023-01-10T06:15:39;9.50;;;3.30;;
52033;SDS011;38045;52.988;6.536;2023-01-10T06:18:05;11.43;;;2.95;;
52033;SDS011;38045;52.988;6.536;2023-01-10T06:20:32;9.52;;;2.65;;
52033;SDS011;38045;52.988;6.536;2023-01-10T06:22:58;9.02;;;3.05;;
52033;SDS011;38045;52.988;6.536;2023-01-10T06:25:26;3.90;;;2.55;;
52033;SDS011;38045;52.988;6.536;2023-01-10T06:27:53;7.15;;;3.35;;
52033;SDS011;38045;52.988;6.536;2023-01-10T06:30:18;4.18;;;2.67;;
52033;SDS011;38045;52.988;6.536;2023-01-10T06:32:44;4.50;;;1.67;;
52033;SDS011;38045;52.988;6.536;2023-01-10T06:35:10;5.80;;;2.35;;
52033;SDS011;38045;52.988;6.536;2023-01-10T06:37:35;9.57;;;3.10;;
52033;SDS011;38045;52.988;6.536;2023-01-10T06:40:02;12.18;;;3.03;;
52033;SDS011;38045;52.988;6.536;2023-01-10T06:42:28;11.07;;;4.00;;
52033;SDS011;38045;52.988;6.536;2023-01-10T06:44:54;6.35;;;2.03;;
52033;SDS011;38045;52.988;6.536;2023-01-10T06:47:19;5.90;;;2.30;;
52033;SDS011;38045;52.988;6.536;2023-01-10T06:49:45;11.85;;;1.80;;
52033;SDS011;38045;52.988;6.536;2023-01-10T06:52:11;10.63;;;4.47;;
52033;SDS011;38045;52.988;6.536;2023-01-10T06:54:36;9.07;;;3.17;;
52033;SDS011;38045;52.988;6.536;2023-01-10T06:57:02;11.48;;;2.30;;
52033;SDS011;38045;52.988;6.536;2023-01-10T06:59:28;5.53;;;3.83;;
52033;SDS011;38045;52.988;6.536;2023-01-10T07:01:54;17.08;;;4.72;;
52033;SDS011;38045;52.988;6.536;2023-01-10T07:04:19;8.25;;;1.80;;
52033;SDS011;38045;52.988;6.536;2023-01-10T07:06:45;8.40;;;4.32;;
52033;SDS011;38045;52.988;6.536;2023-01-10T07:09:11;15.18;;;3.58;;
52033;SDS011;38045;52.988;6.536;2023-01-10T07:11:36;14.02;;;4.55;;
52033;SDS011;38045;52.988;6.536;2023-01-10T07:14:02;12.38;;;3.50;;
52033;SDS011;38045;52.988;6.536;2023-01-10T07:16:28;17.00;;;4.05;;
52033;SDS011;38045;52.988;6.536;2023-01-10T07:18:53;11.05;;;3.35;;
52033;SDS011;38045;52.988;6.536;2023-01-10T07:21:19;15.13;;;4.05;;
52033;SDS011;38045;52.988;6.536;2023-01-10T07:23:48;16.15;;;4.30;;
52033;SDS011;38045;52.988;6.536;2023-01-10T07:28:42;20.85;;;6.28;;
52033;SDS011;38045;52.988;6.536;2023-01-10T07:31:08;21.27;;;5.97;;
52033;SDS011;38045;52.988;6.536;2023-01-10T07:33:34;23.05;;;5.40;;
52033;SDS011;38045;52.988;6.536;2023-01-10T07:36:00;23.67;;;7.00;;
52033;SDS011;38045;52.988;6.536;2023-01-10T07:38:27;10.18;;;3.88;;
52033;SDS011;38045;52.988;6.536;2023-01-10T07:40:53;18.00;;;4.30;;
52033;SDS011;38045;52.988;6.536;2023-01-10T07:43:18;16.73;;;5.40;;
52033;SDS011;38045;52.988;6.536;2023-01-10T07:45:44;16.95;;;5.32;;
52033;SDS011;38045;52.988;6.536;2023-01-10T07:48:09;19.50;;;5.35;;
52033;SDS011;38045;52.988;6.536;2023-01-10T07:50:35;20.05;;;5.03;;
52033;SDS011;38045;52.988;6.536;2023-01-10T07:53:02;16.13;;;3.70;;
52033;SDS011;38045;52.988;6.536;2023-01-10T07:55:29;16.73;;;3.65;;
52033;SDS011;38045;52.988;6.536;2023-01-10T07:57:55;17.48;;;3.55;;
52033;SDS011;38045;52.988;6.536;2023-01-10T08:00:21;18.08;;;6.43;;
52033;SDS011;38045;52.988;6.536;2023-01-10T08:02:46;20.98;;;5.15;;
52033;SDS011;38045;52.988;6.536;2023-01-10T08:05:16;12.02;;;3.58;;
52033;SDS011;38045;52.988;6.536;2023-01-10T08:07:42;22.35;;;6.32;;
52033;SDS011;38045;52.988;6.536;2023-01-10T08:10:08;7.85;;;2.45;;
52033;SDS011;38045;52.988;6.536;2023-01-10T08:12:34;13.63;;;5.32;;
52033;SDS011;38045;52.988;6.536;2023-01-10T08:15:00;16.23;;;3.25;;
52033;SDS011;38045;52.988;6.536;2023-01-10T08:17:26;11.20;;;4.60;;
52033;SDS011;38045;52.988;6.536;2023-01-10T08:19:51;10.02;;;4.53;;
52033;SDS011;38045;52.988;6.536;2023-01-10T08:22:17;32.10;;;8.07;;
52033;SDS011;38045;52.988;6.536;2023-01-10T08:24:42;14.52;;;4.03;;
52033;SDS011;38045;52.988;6.536;2023-01-10T08:27:08;13.82;;;4.00;;
52033;SDS011;38045;52.988;6.536;2023-01-10T08:29:34;10.68;;;4.68;;
52033;SDS011;38045;52.988;6.536;2023-01-10T08:31:59;14.85;;;3.90;;
52033;SDS011;38045;52.988;6.536;2023-01-10T08:34:25;12.35;;;4.93;;
52033;SDS011;38045;52.988;6.536;2023-01-10T08:36:51;23.55;;;6.18;;
52033;SDS011;38045;52.988;6.536;2023-01-10T08:39:18;18.70;;;5.47;;
52033;SDS011;38045;52.988;6.536;2023-01-10T08:41:46;23.38;;;5.25;;
52033;SDS011;38045;52.988;6.536;2023-01-10T08:44:12;16.65;;;6.45;;
52033;SDS011;38045;52.988;6.536;2023-01-10T08:46:39;10.40;;;4.32;;
52033;SDS011;38045;52.988;6.536;2023-01-10T08:49:08;11.85;;;3.78;;
52033;SDS011;38045;52.988;6.536;2023-01-10T08:51:34;22.33;;;6.05;;
52033;SDS011;38045;52.988;6.536;2023-01-10T08:54:00;23.92;;;4.07;;
52033;SDS011;38045;52.988;6.536;2023-01-10T08:56:25;8.18;;;2.70;;
52033;SDS011;38045;52.988;6.536;2023-01-10T08:58:51;15.27;;;6.50;;
52033;SDS011;38045;52.988;6.536;2023-01-10T09:01:17;22.00;;;6.20;;
52033;SDS011;38045;52.988;6.536;2023-01-10T09:03:42;16.33;;;3.65;;
52033;SDS011;38045;52.988;6.536;2023-01-10T09:06:09;6.40;;;3.80;;
52033;SDS011;38045;52.988;6.536;2023-01-10T09:08:35;17.63;;;6.07;;
52033;SDS011;38045;52.988;6.536;2023-01-10T09:11:01;18.63;;;5.47;;
52033;SDS011;38045;52.988;6.536;2023-01-10T09:13:28;9.77;;;3.35;;
52033;SDS011;38045;52.988;6.536;2023-01-10T09:15:54;30.90;;;7.43;;
52033;SDS011;38045;52.988;6.536;2023-01-10T09:18:20;20.77;;;6.65;;
52033;SDS011;38045;52.988;6.536;2023-01-10T09:20:47;18.38;;;6.57;;
52033;SDS011;38045;52.988;6.536;2023-01-10T09:23:15;14.30;;;4.43;;
52033;SDS011;38045;52.988;6.536;2023-01-10T09:25:44;14.90;;;5.15;;
52033;SDS011;38045;52.988;6.536;2023-01-10T09:28:11;16.73;;;3.53;;
52033;SDS011;38045;52.988;6.536;2023-01-10T09:30:37;27.15;;;6.13;;
52033;SDS011;38045;52.988;6.536;2023-01-10T09:33:04;54.20;;;5.95;;
52033;SDS011;38045;52.988;6.536;2023-01-10T09:35:30;16.60;;;4.32;;
52033;SDS011;38045;52.988;6.536;2023-01-10T09:37:59;10.68;;;3.72;;
52033;SDS011;38045;52.988;6.536;2023-01-10T09:43:03;6.25;;;2.58;;
52033;SDS011;38045;52.988;6.536;2023-01-10T09:48:21;19.27;;;4.40;;
52033;SDS011;38045;52.988;6.536;2023-01-10T09:53:21;24.73;;;5.95;;
52033;SDS011;38045;52.988;6.536;2023-01-10T09:55:51;10.27;;;3.28;;
52033;SDS011;38045;52.988;6.536;2023-01-10T09:58:19;18.45;;;6.90;;
52033;SDS011;38045;52.988;6.536;2023-01-10T10:00:53;9.38;;;4.28;;
52033;SDS011;38045;52.988;6.536;2023-01-10T10:06:33;14.43;;;5.80;;
52033;SDS011;38045;52.988;6.536;2023-01-10T10:08:58;15.80;;;5.25;;
52033;SDS011;38045;52.988;6.536;2023-01-10T10:13:54;16.77;;;6.78;;
52033;SDS011;38045;52.988;6.536;2023-01-10T10:22:24;28.85;;;7.30;;
52033;SDS011;38045;52.988;6.536;2023-01-10T10:25:17;3.10;;;2.47;;
52033;SDS011;38045;52.988;6.536;2023-01-10T10:27:53;17.60;;;5.95;;
52033;SDS011;38045;52.988;6.536;2023-01-10T10:30:39;10.80;;;3.78;;
52033;SDS011;38045;52.988;6.536;2023-01-10T10:36:04;17.92;;;4.07;;
52033;SDS011;38045;52.988;6.536;2023-01-10T10:38:45;16.30;;;5.50;;
52033;SDS011;38045;52.988;6.536;2023-01-10T10:41:34;15.25;;;3.75;;
52033;SDS011;38045;52.988;6.536;2023-01-10T10:44:01;22.17;;;7.40;;
52033;SDS011;38045;52.988;6.536;2023-01-10T10:46:50;21.58;;;5.38;;
52033;SDS011;38045;52.988;6.536;2023-01-10T10:49:17;19.67;;;7.35;;
52033;SDS011;38045;52.988;6.536;2023-01-10T10:52:23;15.30;;;5.53;;
52033;SDS011;38045;52.988;6.536;2023-01-10T10:54:50;11.00;;;5.32;;
52033;SDS011;38045;52.988;6.536;2023-01-10T10:57:16;17.63;;;4.70;;
52033;SDS011;38045;52.988;6.536;2023-01-10T10:59:43;20.90;;;5.97;;
52033;SDS011;38045;52.988;6.536;2023-01-10T11:02:18;26.98;;;8.15;;
52033;SDS011;38045;52.988;6.536;2023-01-10T11:04:48;15.55;;;6.68;;
52033;SDS011;38045;52.988;6.536;2023-01-10T11:07:15;17.98;;;6.93;;
52033;SDS011;38045;52.988;6.536;2023-01-10T11:09:42;30.55;;;11.07;;
52033;SDS011;38045;52.988;6.536;2023-01-10T11:12:13;21.17;;;8.55;;
52033;SDS011;38045;52.988;6.536;2023-01-10T11:14:49;19.55;;;9.27;;
52033;SDS011;38045;52.988;6.536;2023-01-10T11:17:25;16.80;;;7.60;;
52033;SDS011;38045;52.988;6.536;2023-01-10T11:20:00;17.23;;;8.18;;
52033;SDS011;38045;52.988;6.536;2023-01-10T11:22:29;17.33;;;8.18;;
52033;SDS011;38045;52.988;6.536;2023-01-10T11:25:14;18.73;;;8.63;;
52033;SDS011;38045;52.988;6.536;2023-01-10T11:27:51;31.55;;;12.18;;
52033;SDS011;38045;52.988;6.536;2023-01-10T11:30:26;24.65;;;10.10;;
52033;SDS011;38045;52.988;6.536;2023-01-10T11:32:55;31.42;;;10.73;;
52033;SDS011;38045;52.988;6.536;2023-01-10T11:35:24;24.92;;;8.82;;
52033;SDS011;38045;52.988;6.536;2023-01-10T11:40:24;16.77;;;6.68;;
52033;SDS011;38045;52.988;6.536;2023-01-10T11:42:52;24.48;;;10.52;;
52033;SDS011;38045;52.988;6.536;2023-01-10T11:47:55;24.90;;;10.65;;
52033;SDS011;38045;52.988;6.536;2023-01-10T11:50:27;13.50;;;7.32;;
52033;SDS011;38045;52.988;6.536;2023-01-10T11:52:55;19.10;;;10.02;;
52033;SDS011;38045;52.988;6.536;2023-01-10T11:55:23;23.77;;;9.13;;
52033;SDS011;38045;52.988;6.536;2023-01-10T12:00:42;23.30;;;7.70;;
52033;SDS011;38045;52.988;6.536;2023-01-10T12:03:18;23.88;;;9.20;;
52033;SDS011;38045;52.988;6.536;2023-01-10T12:06:06;17.08;;;5.38;;
52033;SDS011;38045;52.988;6.536;2023-01-10T12:08:41;27.42;;;7.38;;
52033;SDS011;38045;52.988;6.536;2023-01-10T12:13:49;14.15;;;3.28;;
52033;SDS011;38045;52.988;6.536;2023-01-10T12:16:29;22.27;;;7.05;;
52033;SDS011;38045;52.988;6.536;2023-01-10T12:18:58;19.02;;;7.03;;
52033;SDS011;38045;52.988;6.536;2023-01-10T12:21:37;24.77;;;7.95;;
52033;SDS011;38045;52.988;6.536;2023-01-10T12:24:05;27.48;;;8.70;;
52033;SDS011;38045;52.988;6.536;2023-01-10T12:26:38;37.88;;;8.73;;
52033;SDS011;38045;52.988;6.536;2023-01-10T12:29:11;31.45;;;9.18;;
52033;SDS011;38045;52.988;6.536;2023-01-10T12:31:40;19.75;;;7.47;;
52033;SDS011;38045;52.988;6.536;2023-01-10T12:34:11;21.33;;;7.60;;
52033;SDS011;38045;52.988;6.536;2023-01-10T12:39:38;20.60;;;6.70;;
52033;SDS011;38045;52.988;6.536;2023-01-10T12:44:59;20.80;;;5.65;;
52033;SDS011;38045;52.988;6.536;2023-01-10T12:50:11;29.70;;;7.22;;
52033;SDS011;38045;52.988;6.536;2023-01-10T12:52:43;14.45;;;5.80;;
52033;SDS011;38045;52.988;6.536;2023-01-10T12:55:35;8.68;;;5.00;;
52033;SDS011;38045;52.988;6.536;2023-01-10T12:58:04;22.10;;;8.57;;
52033;SDS011;38045;52.988;6.536;2023-01-10T13:00:36;21.33;;;6.75;;
52033;SDS011;38045;52.988;6.536;2023-01-10T13:03:10;19.92;;;5.50;;
52033;SDS011;38045;52.988;6.536;2023-01-10T13:05:38;17.13;;;4.55;;
52033;SDS011;38045;52.988;6.536;2023-01-10T13:08:05;15.07;;;5.68;;
52033;SDS011;38045;52.988;6.536;2023-01-10T13:10:38;16.17;;;5.38;;
52033;SDS011;38045;52.988;6.536;2023-01-10T13:13:15;11.02;;;5.28;;
52033;SDS011;38045;52.988;6.536;2023-01-10T13:19:04;21.73;;;6.82;;
52033;SDS011;38045;52.988;6.536;2023-01-10T13:21:31;25.30;;;6.65;;
52033;SDS011;38045;52.988;6.536;2023-01-10T13:24:02;15.25;;;7.47;;
52033;SDS011;38045;52.988;6.536;2023-01-10T13:29:10;23.35;;;6.53;;
52033;SDS011;38045;52.988;6.536;2023-01-10T13:31:40;13.05;;;5.35;;
52033;SDS011;38045;52.988;6.536;2023-01-10T13:34:07;26.92;;;7.63;;
52033;SDS011;38045;52.988;6.536;2023-01-10T13:36:40;18.88;;;6.22;;
52033;SDS011;38045;52.988;6.536;2023-01-10T13:58:04;16.15;;;5.18;;
52033;SDS011;38045;52.988;6.536;2023-01-10T14:01:24;25.33;;;6.07;;
52033;SDS011;38045;52.988;6.536;2023-01-10T14:04:22;20.40;;;5.50;;
52033;SDS011;38045;52.988;6.536;2023-01-10T14:09:30;16.83;;;5.75;;
52033;SDS011;38045;52.988;6.536;2023-01-10T14:12:00;24.30;;;6.35;;
52033;SDS011;38045;52.988;6.536;2023-01-10T14:14:41;21.45;;;7.70;;
52033;SDS011;38045;52.988;6.536;2023-01-10T14:17:20;14.00;;;4.55;;
52033;SDS011;38045;52.988;6.536;2023-01-10T14:19:47;22.92;;;6.68;;
52033;SDS011;38045;52.988;6.536;2023-01-10T14:22:23;13.18;;;5.88;;
52033;SDS011;38045;52.988;6.536;2023-01-10T14:24:51;11.32;;;3.72;;
52033;SDS011;38045;52.988;6.536;2023-01-10T14:27:18;9.18;;;2.90;;
52033;SDS011;38045;52.988;6.536;2023-01-10T14:29:49;12.23;;;4.43;;
52033;SDS011;38045;52.988;6.536;2023-01-10T14:32:38;14.82;;;4.95;;
52033;SDS011;38045;52.988;6.536;2023-01-10T14:35:08;29.15;;;6.28;;
52033;SDS011;38045;52.988;6.536;2023-01-10T14:37:44;15.45;;;4.93;;
52033;SDS011;38045;52.988;6.536;2023-01-10T14:42:43;17.45;;;5.65;;
52033;SDS011;38045;52.988;6.536;2023-01-10T14:48:16;14.57;;;4.13;;
52033;SDS011;38045;52.988;6.536;2023-01-10T14:51:06;13.57;;;3.20;;
52033;SDS011;38045;52.988;6.536;2023-01-10T14:53:54;14.85;;;4.63;;
52033;SDS011;38045;52.988;6.536;2023-01-10T15:02:19;16.10;;;4.57;;
52033;SDS011;38045;52.988;6.536;2023-01-10T15:04:51;22.42;;;5.20;;
52033;SDS011;38045;52.988;6.536;2023-01-10T15:07:22;10.95;;;4.30;;
52033;SDS011;38045;52.988;6.536;2023-01-10T15:09:50;9.27;;;3.25;;
52033;SDS011;38045;52.988;6.536;2023-01-10T15:12:23;14.57;;;3.95;;
52033;SDS011;38045;52.988;6.536;2023-01-10T15:14:54;6.05;;;3.33;;
52033;SDS011;38045;52.988;6.536;2023-01-10T15:17:27;22.05;;;6.53;;
52033;SDS011;38045;52.988;6.536;2023-01-10T15:19:53;18.17;;;5.35;;
52033;SDS011;38045;52.988;6.536;2023-01-10T15:22:29;19.02;;;4.13;;
52033;SDS011;38045;52.988;6.536;2023-01-10T15:25:04;17.05;;;6.25;;
52033;SDS011;38045;52.988;6.536;2023-01-10T15:27:48;14.85;;;4.47;;
52033;SDS011;38045;52.988;6.536;2023-01-10T15:30:22;16.75;;;4.97;;
52033;SDS011;38045;52.988;6.536;2023-01-10T15:32:51;19.67;;;4.40;;
52033;SDS011;38045;52.988;6.536;2023-01-10T15:35:20;25.48;;;5.55;;
52033;SDS011;38045;52.988;6.536;2023-01-10T15:37:49;23.05;;;5.22;;
52033;SDS011;38045;52.988;6.536;2023-01-10T15:40:22;16.40;;;4.65;;
52033;SDS011;38045;52.988;6.536;2023-01-10T15:43:08;10.40;;;3.67;;
52033;SDS011;38045;52.988;6.536;2023-01-10T15:45:36;22.20;;;6.50;;
52033;SDS011;38045;52.988;6.536;2023-01-10T15:48:04;27.45;;;6.72;;
52033;SDS011;38045;52.988;6.536;2023-01-10T15:50:31;15.68;;;4.25;;
52033;SDS011;38045;52.988;6.536;2023-01-10T15:53:05;15.27;;;4.32;;
52033;SDS011;38045;52.988;6.536;2023-01-10T15:55:37;12.87;;;4.67;;
52033;SDS011;38045;52.988;6.536;2023-01-10T15:58:04;12.65;;;3.85;;
52033;SDS011;38045;52.988;6.536;2023-01-10T16:00:41;21.25;;;5.30;;
52033;SDS011;38045;52.988;6.536;2023-01-10T16:06:18;16.77;;;6.38;;
52033;SDS011;38045;52.988;6.536;2023-01-10T16:08:56;16.75;;;4.50;;
52033;SDS011;38045;52.988;6.536;2023-01-10T16:11:27;15.05;;;4.30;;
52033;SDS011;38045;52.988;6.536;2023-01-10T16:14:31;12.48;;;4.70;;
52033;SDS011;38045;52.988;6.536;2023-01-10T16:17:00;15.38;;;5.90;;
52033;SDS011;38045;52.988;6.536;2023-01-10T16:19:26;15.77;;;4.93;;
52033;SDS011;38045;52.988;6.536;2023-01-10T16:21:53;17.92;;;4.80;;
52033;SDS011;38045;52.988;6.536;2023-01-10T16:24:27;10.32;;;4.03;;
52033;SDS011;38045;52.988;6.536;2023-01-10T16:27:05;19.92;;;6.38;;
52033;SDS011;38045;52.988;6.536;2023-01-10T16:29:31;18.98;;;4.95;;
52033;SDS011;38045;52.988;6.536;2023-01-10T16:31:57;17.42;;;4.80;;
52033;SDS011;38045;52.988;6.536;2023-01-10T16:34:23;15.30;;;5.15;;
52033;SDS011;38045;52.988;6.536;2023-01-10T16:36:49;13.85;;;5.03;;
52033;SDS011;38045;52.988;6.536;2023-01-10T16:39:19;16.63;;;4.78;;
52033;SDS011;38045;52.988;6.536;2023-01-10T16:41:46;19.70;;;6.15;;
52033;SDS011;38045;52.988;6.536;2023-01-10T16:44:32;18.45;;;5.70;;
52033;SDS011;38045;52.988;6.536;2023-01-10T16:46:58;16.27;;;4.00;;
52033;SDS011;38045;52.988;6.536;2023-01-10T16:49:24;21.60;;;5.88;;
52033;SDS011;38045;52.988;6.536;2023-01-10T16:51:49;13.75;;;4.60;;